sensor_id;sensor_type;location;lat;lon;timestamp;temperature;humidity
39957;DHT22;48483;44.640;7.494;2023-04-09T00:01:35;12.00;70.60
39957;DHT22;48483;44.640;7.494;2023-04-09T00:04:01;12.00;71.40
39957;DHT22;48483;44.640;7.494;2023-04-09T00:06:28;12.00;72.80
39957;DHT22;48483;44.640;7.494;2023-04-09T00:08:54;11.90;74.50
39957;DHT22;48483;44.640;7.494;2023-04-09T00:11:21;11.90;76.70
39957;DHT22;48483;44.640;7.494;2023-04-09T00:13:48;11.80;78.90
39957;DHT22;48483;44.640;7.494;2023-04-09T00:16:14;11.70;81.20
39957;DHT22;48483;44.640;7.494;2023-04-09T00:18:42;11.70;82.00
39957;DHT22;48483;44.640;7.494;2023-04-09T00:21:09;11.60;82.40
39957;DHT22;48483;44.640;7.494;2023-04-09T00:23:36;11.60;82.70
39957;DHT22;48483;44.640;7.494;2023-04-09T00:26:03;11.60;83.20
39957;DHT22;48483;44.640;7.494;2023-04-09T00:28:30;11.60;84.40
39957;DHT22;48483;44.640;7.494;2023-04-09T00:30:57;11.60;85.90
39957;DHT22;48483;44.640;7.494;2023-04-09T00:33:23;11.50;87.30
39957;DHT22;48483;44.640;7.494;2023-04-09T00:35:52;11.50;88.90
39957;DHT22;48483;44.640;7.494;2023-04-09T00:38:19;11.40;90.20
39957;DHT22;48483;44.640;7.494;2023-04-09T00:40:48;11.40;90.90
39957;DHT22;48483;44.640;7.494;2023-04-09T00:43:16;11.40;91.70
39957;DHT22;48483;44.640;7.494;2023-04-09T00:45:43;11.40;92.10
39957;DHT22;48483;44.640;7.494;2023-04-09T00:48:10;11.30;92.70
39957;DHT22;48483;44.640;7.494;2023-04-09T00:50:37;11.30;93.40
39957;DHT22;48483;44.640;7.494;2023-04-09T00:53:06;11.30;93.90
39957;DHT22;48483;44.640;7.494;2023-04-09T00:55:33;11.30;94.50
39957;DHT22;48483;44.640;7.494;2023-04-09T00:58:01;11.30;95.10
39957;DHT22;48483;44.640;7.494;2023-04-09T01:00:28;11.20;95.80
39957;DHT22;48483;44.640;7.494;2023-04-09T01:02:56;11.20;96.40
39957;DHT22;48483;44.640;7.494;2023-04-09T01:05:23;11.20;96.80
39957;DHT22;48483;44.640;7.494;2023-04-09T01:08:00;11.20;97.10
39957;DHT22;48483;44.640;7.494;2023-04-09T01:10:36;11.20;97.30
39957;DHT22;48483;44.640;7.494;2023-04-09T01:13:09;11.20;97.60
39957;DHT22;48483;44.640;7.494;2023-04-09T01:15:41;11.20;98.00
39957;DHT22;48483;44.640;7.494;2023-04-09T01:18:14;11.20;98.60
39957;DHT22;48483;44.640;7.494;2023-04-09T01:20:48;11.20;99.10
39957;DHT22;48483;44.640;7.494;2023-04-09T01:23:22;11.20;99.60
39957;DHT22;48483;44.640;7.494;2023-04-09T01:26:03;11.20;99.90
39957;DHT22;48483;44.640;7.494;2023-04-09T01:28:49;11.20;99.90
39957;DHT22;48483;44.640;7.494;2023-04-09T01:31:19;11.20;99.90
39957;DHT22;48483;44.640;7.494;2023-04-09T01:33:51;11.10;99.90
39957;DHT22;48483;44.640;7.494;2023-04-09T01:36:18;11.10;99.90
39957;DHT22;48483;44.640;7.494;2023-04-09T01:38:47;11.10;99.90
39957;DHT22;48483;44.640;7.494;2023-04-09T01:41:16;11.00;99.90
39957;DHT22;48483;44.640;7.494;2023-04-09T01:43:45;11.00;99.90
39957;DHT22;48483;44.640;7.494;2023-04-09T01:46:15;11.00;99.90
39957;DHT22;48483;44.640;7.494;2023-04-09T01:48:43;10.90;99.90
39957;DHT22;48483;44.640;7.494;2023-04-09T01:51:10;10.90;99.90
39957;DHT22;48483;44.640;7.494;2023-04-09T01:53:39;10.90;99.90
39957;DHT22;48483;44.640;7.494;2023-04-09T01:56:07;10.90;99.90
39957;DHT22;48483;44.640;7.494;2023-04-09T01:58:33;10.90;99.90
39957;DHT22;48483;44.640;7.494;2023-04-09T02:01:08;10.90;99.90
39957;DHT22;48483;44.640;7.494;2023-04-09T02:03:38;10.90;99.90
39957;DHT22;48483;44.640;7.494;2023-04-09T02:06:10;10.90;99.90
39957;DHT22;48483;44.640;7.494;2023-04-09T02:08:38;10.90;99.90
39957;DHT22;48483;44.640;7.494;2023-04-09T02:11:09;10.90;99.90
39957;DHT22;48483;44.640;7.494;2023-04-09T02:13:36;10.90;99.90
39957;DHT22;48483;44.640;7.494;2023-04-09T02:16:09;10.90;99.90
39957;DHT22;48483;44.640;7.494;2023-04-09T02:18:36;10.90;99.90
39957;DHT22;48483;44.640;7.494;2023-04-09T02:21:04;10.80;99.90
39957;DHT22;48483;44.640;7.494;2023-04-09T02:23:31;10.90;99.90
39957;DHT22;48483;44.640;7.494;2023-04-09T02:25:58;10.80;99.90
39957;DHT22;48483;44.640;7.494;2023-04-09T02:28:25;10.80;99.90
39957;DHT22;48483;44.640;7.494;2023-04-09T02:30:52;10.80;99.90
39957;DHT22;48483;44.640;7.494;2023-04-09T02:33:20;10.80;99.90
39957;DHT22;48483;44.640;7.494;2023-04-09T02:35:47;10.80;99.90
39957;DHT22;48483;44.640;7.494;2023-04-09T02:38:14;10.80;99.90
39957;DHT22;48483;44.640;7.494;2023-04-09T02:40:41;10.80;99.90
39957;DHT22;48483;44.640;7.494;2023-04-09T02:43:08;10.80;99.90
39957;DHT22;48483;44.640;7.494;2023-04-09T02:45:35;10.80;99.90
39957;DHT22;48483;44.640;7.494;2023-04-09T02:48:02;10.70;99.90
39957;DHT22;48483;44.640;7.494;2023-04-09T02:50:35;10.70;99.90
39957;DHT22;48483;44.640;7.494;2023-04-09T02:53:02;10.70;99.90
39957;DHT22;48483;44.640;7.494;2023-04-09T02:55:29;10.70;99.90
39957;DHT22;48483;44.640;7.494;2023-04-09T02:57:56;10.70;99.90
39957;DHT22;48483;44.640;7.494;2023-04-09T03:00:22;10.70;99.90
39957;DHT22;48483;44.640;7.494;2023-04-09T03:02:49;10.70;99.90
39957;DHT22;48483;44.640;7.494;2023-04-09T03:05:16;10.60;99.90
39957;DHT22;48483;44.640;7.494;2023-04-09T03:07:44;10.70;99.90
39957;DHT22;48483;44.640;7.494;2023-04-09T03:10:12;10.60;99.90
39957;DHT22;48483;44.640;7.494;2023-04-09T03:12:39;10.60;99.90
39957;DHT22;48483;44.640;7.494;2023-04-09T03:15:06;10.60;99.90
39957;DHT22;48483;44.640;7.494;2023-04-09T03:17:33;10.60;99.90
39957;DHT22;48483;44.640;7.494;2023-04-09T03:20:00;10.60;99.90
39957;DHT22;48483;44.640;7.494;2023-04-09T03:22:35;10.60;99.90
39957;DHT22;48483;44.640;7.494;2023-04-09T03:25:06;10.60;99.90
39957;DHT22;48483;44.640;7.494;2023-04-09T03:27:34;10.60;99.90
39957;DHT22;48483;44.640;7.494;2023-04-09T03:30:02;10.60;99.90
39957;DHT22;48483;44.640;7.494;2023-04-09T03:32:37;10.60;99.90
39957;DHT22;48483;44.640;7.494;2023-04-09T03:35:05;10.50;99.90
39957;DHT22;48483;44.640;7.494;2023-04-09T03:37:32;10.50;99.90
39957;DHT22;48483;44.640;7.494;2023-04-09T03:39:59;10.50;99.90
39957;DHT22;48483;44.640;7.494;2023-04-09T03:42:30;10.50;99.90
39957;DHT22;48483;44.640;7.494;2023-04-09T03:44:57;10.50;99.90
39957;DHT22;48483;44.640;7.494;2023-04-09T03:47:35;10.40;99.90
39957;DHT22;48483;44.640;7.494;2023-04-09T03:50:02;10.40;99.90
39957;DHT22;48483;44.640;7.494;2023-04-09T03:52:41;10.40;99.90
39957;DHT22;48483;44.640;7.494;2023-04-09T03:55:09;10.40;99.90
39957;DHT22;48483;44.640;7.494;2023-04-09T03:57:37;10.40;99.90
39957;DHT22;48483;44.640;7.494;2023-04-09T04:00:08;10.40;99.90
39957;DHT22;48483;44.640;7.494;2023-04-09T04:02:53;10.40;99.90
39957;DHT22;48483;44.640;7.494;2023-04-09T04:05:39;10.40;99.90
39957;DHT22;48483;44.640;7.494;2023-04-09T04:08:09;10.40;99.90
39957;DHT22;48483;44.640;7.494;2023-04-09T04:10:36;10.50;99.90
39957;DHT22;48483;44.640;7.494;2023-04-09T04:13:05;10.40;99.90
39957;DHT22;48483;44.640;7.494;2023-04-09T04:15:42;10.30;99.90
39957;DHT22;48483;44.640;7.494;2023-04-09T04:18:10;10.20;99.90
39957;DHT22;48483;44.640;7.494;2023-04-09T04:20:42;10.10;99.90
39957;DHT22;48483;44.640;7.494;2023-04-09T04:23:13;10.10;99.90
39957;DHT22;48483;44.640;7.494;2023-04-09T04:25:52;10.10;99.90
39957;DHT22;48483;44.640;7.494;2023-04-09T04:28:27;10.10;99.90
39957;DHT22;48483;44.640;7.494;2023-04-09T04:30:53;10.10;99.90
39957;DHT22;48483;44.640;7.494;2023-04-09T04:33:20;10.10;99.90
39957;DHT22;48483;44.640;7.494;2023-04-09T04:35:51;10.10;99.90
39957;DHT22;48483;44.640;7.494;2023-04-09T04:38:47;10.10;99.90
39957;DHT22;48483;44.640;7.494;2023-04-09T04:41:20;10.10;99.90
39957;DHT22;48483;44.640;7.494;2023-04-09T04:43:55;10.20;99.90
39957;DHT22;48483;44.640;7.494;2023-04-09T04:46:24;10.20;99.90
39957;DHT22;48483;44.640;7.494;2023-04-09T04:48:50;10.20;99.90
39957;DHT22;48483;44.640;7.494;2023-04-09T04:51:17;10.20;99.90
39957;DHT22;48483;44.640;7.494;2023-04-09T04:53:56;10.20;99.90
39957;DHT22;48483;44.640;7.494;2023-04-09T04:56:22;10.20;99.90
39957;DHT22;48483;44.640;7.494;2023-04-09T04:59:00;10.20;99.90
39957;DHT22;48483;44.640;7.494;2023-04-09T05:01:33;10.20;99.90
39957;DHT22;48483;44.640;7.494;2023-04-09T05:04:01;10.10;99.90
39957;DHT22;48483;44.640;7.494;2023-04-09T05:06:32;10.10;99.90
39957;DHT22;48483;44.640;7.494;2023-04-09T05:09:02;10.10;99.90
39957;DHT22;48483;44.640;7.494;2023-04-09T05:11:37;10.10;99.90
39957;DHT22;48483;44.640;7.494;2023-04-09T05:14:09;10.10;99.90
39957;DHT22;48483;44.640;7.494;2023-04-09T05:16:36;10.10;99.90
39957;DHT22;48483;44.640;7.494;2023-04-09T05:19:05;10.10;99.90
39957;DHT22;48483;44.640;7.494;2023-04-09T05:21:32;10.10;99.90
39957;DHT22;48483;44.640;7.494;2023-04-09T05:23:59;10.10;99.90
39957;DHT22;48483;44.640;7.494;2023-04-09T05:26:30;10.10;99.90
39957;DHT22;48483;44.640;7.494;2023-04-09T05:29:01;10.20;99.90
39957;DHT22;48483;44.640;7.494;2023-04-09T05:31:29;10.10;99.90
39957;DHT22;48483;44.640;7.494;2023-04-09T05:34:04;10.10;99.90
39957;DHT22;48483;44.640;7.494;2023-04-09T05:36:38;10.20;99.90
39957;DHT22;48483;44.640;7.494;2023-04-09T05:39:05;10.20;99.90
39957;DHT22;48483;44.640;7.494;2023-04-09T05:41:32;10.20;99.90
39957;DHT22;48483;44.640;7.494;2023-04-09T05:44:25;10.20;99.90
39957;DHT22;48483;44.640;7.494;2023-04-09T05:46:58;10.30;99.90
39957;DHT22;48483;44.640;7.494;2023-04-09T05:49:31;10.30;99.90
39957;DHT22;48483;44.640;7.494;2023-04-09T05:51:58;10.30;99.90
39957;DHT22;48483;44.640;7.494;2023-04-09T05:54:28;10.40;99.90
39957;DHT22;48483;44.640;7.494;2023-04-09T05:56:54;10.40;99.90
39957;DHT22;48483;44.640;7.494;2023-04-09T05:59:21;10.40;99.90
39957;DHT22;48483;44.640;7.494;2023-04-09T06:01:48;10.40;99.90
39957;DHT22;48483;44.640;7.494;2023-04-09T06:04:16;10.40;99.90
39957;DHT22;48483;44.640;7.494;2023-04-09T06:06:43;10.40;99.90
39957;DHT22;48483;44.640;7.494;2023-04-09T06:09:09;10.50;99.90
39957;DHT22;48483;44.640;7.494;2023-04-09T06:11:37;10.50;99.90
39957;DHT22;48483;44.640;7.494;2023-04-09T06:14:04;10.50;99.90
39957;DHT22;48483;44.640;7.494;2023-04-09T06:16:32;10.60;99.90
39957;DHT22;48483;44.640;7.494;2023-04-09T06:18:58;10.60;99.90
39957;DHT22;48483;44.640;7.494;2023-04-09T06:21:26;10.60;99.90
39957;DHT22;48483;44.640;7.494;2023-04-09T06:23:53;10.70;99.90
39957;DHT22;48483;44.640;7.494;2023-04-09T06:26:20;10.70;99.90
39957;DHT22;48483;44.640;7.494;2023-04-09T06:28:46;10.80;99.90
39957;DHT22;48483;44.640;7.494;2023-04-09T06:31:13;10.80;99.90
39957;DHT22;48483;44.640;7.494;2023-04-09T06:33:40;10.80;99.90
39957;DHT22;48483;44.640;7.494;2023-04-09T06:36:06;10.90;99.90
39957;DHT22;48483;44.640;7.494;2023-04-09T06:38:35;10.90;99.90
39957;DHT22;48483;44.640;7.494;2023-04-09T06:41:01;11.00;99.90
39957;DHT22;48483;44.640;7.494;2023-04-09T06:43:28;11.10;99.90
39957;DHT22;48483;44.640;7.494;2023-04-09T06:45:55;11.20;99.90
39957;DHT22;48483;44.640;7.494;2023-04-09T06:48:22;11.40;99.90
39957;DHT22;48483;44.640;7.494;2023-04-09T06:50:49;11.60;99.90
39957;DHT22;48483;44.640;7.494;2023-04-09T06:53:15;11.80;99.90
39957;DHT22;48483;44.640;7.494;2023-04-09T06:55:44;11.90;99.90
39957;DHT22;48483;44.640;7.494;2023-04-09T06:58:10;12.00;99.90
39957;DHT22;48483;44.640;7.494;2023-04-09T07:00:37;12.10;99.90
39957;DHT22;48483;44.640;7.494;2023-04-09T07:03:04;12.10;99.90
39957;DHT22;48483;44.640;7.494;2023-04-09T07:05:33;12.20;99.90
39957;DHT22;48483;44.640;7.494;2023-04-09T07:07:59;12.20;99.90
39957;DHT22;48483;44.640;7.494;2023-04-09T07:10:26;12.30;99.90
39957;DHT22;48483;44.640;7.494;2023-04-09T07:12:54;12.20;99.90
39957;DHT22;48483;44.640;7.494;2023-04-09T07:15:21;12.40;99.90
39957;DHT22;48483;44.640;7.494;2023-04-09T07:17:47;12.60;99.90
39957;DHT22;48483;44.640;7.494;2023-04-09T07:20:14;12.60;99.90
39957;DHT22;48483;44.640;7.494;2023-04-09T07:22:40;12.70;99.90
39957;DHT22;48483;44.640;7.494;2023-04-09T07:25:07;12.70;99.90
39957;DHT22;48483;44.640;7.494;2023-04-09T07:27:34;12.70;99.90
39957;DHT22;48483;44.640;7.494;2023-04-09T07:30:02;12.80;99.90
39957;DHT22;48483;44.640;7.494;2023-04-09T07:32:29;12.80;99.90
39957;DHT22;48483;44.640;7.494;2023-04-09T07:34:57;12.90;99.90
39957;DHT22;48483;44.640;7.494;2023-04-09T07:37:25;12.90;99.90
39957;DHT22;48483;44.640;7.494;2023-04-09T07:39:52;13.00;99.90
39957;DHT22;48483;44.640;7.494;2023-04-09T07:42:19;13.00;99.90
39957;DHT22;48483;44.640;7.494;2023-04-09T07:44:45;13.00;99.90
39957;DHT22;48483;44.640;7.494;2023-04-09T07:47:14;13.00;99.90
39957;DHT22;48483;44.640;7.494;2023-04-09T07:49:40;12.90;99.90
39957;DHT22;48483;44.640;7.494;2023-04-09T07:52:07;13.00;99.90
39957;DHT22;48483;44.640;7.494;2023-04-09T07:54:34;13.20;99.90
39957;DHT22;48483;44.640;7.494;2023-04-09T07:57:01;13.30;99.90
39957;DHT22;48483;44.640;7.494;2023-04-09T07:59:28;13.30;99.90
39957;DHT22;48483;44.640;7.494;2023-04-09T08:01:54;13.50;99.90
39957;DHT22;48483;44.640;7.494;2023-04-09T08:04:25;13.60;99.90
39957;DHT22;48483;44.640;7.494;2023-04-09T08:06:52;13.60;99.90
39957;DHT22;48483;44.640;7.494;2023-04-09T08:09:19;13.60;99.90
39957;DHT22;48483;44.640;7.494;2023-04-09T08:11:47;13.60;99.90
39957;DHT22;48483;44.640;7.494;2023-04-09T08:14:14;13.60;99.90
39957;DHT22;48483;44.640;7.494;2023-04-09T08:16:42;13.60;99.90
39957;DHT22;48483;44.640;7.494;2023-04-09T08:19:10;13.70;99.90
39957;DHT22;48483;44.640;7.494;2023-04-09T08:21:39;13.70;99.90
39957;DHT22;48483;44.640;7.494;2023-04-09T08:24:08;13.70;99.90
39957;DHT22;48483;44.640;7.494;2023-04-09T08:26:36;13.90;99.90
39957;DHT22;48483;44.640;7.494;2023-04-09T08:29:03;14.00;99.90
39957;DHT22;48483;44.640;7.494;2023-04-09T08:31:30;14.10;99.80
39957;DHT22;48483;44.640;7.494;2023-04-09T08:33:57;14.10;99.70
39957;DHT22;48483;44.640;7.494;2023-04-09T08:36:23;14.20;99.40
39957;DHT22;48483;44.640;7.494;2023-04-09T08:38:52;14.20;99.50
39957;DHT22;48483;44.640;7.494;2023-04-09T08:41:22;14.30;99.30
39957;DHT22;48483;44.640;7.494;2023-04-09T08:43:50;14.40;99.00
39957;DHT22;48483;44.640;7.494;2023-04-09T08:46:18;14.30;98.80
39957;DHT22;48483;44.640;7.494;2023-04-09T08:48:46;14.20;98.60
39957;DHT22;48483;44.640;7.494;2023-04-09T08:51:13;14.10;98.50
39957;DHT22;48483;44.640;7.494;2023-04-09T08:53:42;14.20;98.40
39957;DHT22;48483;44.640;7.494;2023-04-09T08:56:11;14.40;98.10
39957;DHT22;48483;44.640;7.494;2023-04-09T08:58:41;14.50;98.10
39957;DHT22;48483;44.640;7.494;2023-04-09T09:01:18;14.50;98.00
39957;DHT22;48483;44.640;7.494;2023-04-09T09:03:53;14.40;98.20
39957;DHT22;48483;44.640;7.494;2023-04-09T09:06:21;14.60;98.90
39957;DHT22;48483;44.640;7.494;2023-04-09T09:09:02;14.50;98.30
39957;DHT22;48483;44.640;7.494;2023-04-09T09:11:31;14.50;98.40
39957;DHT22;48483;44.640;7.494;2023-04-09T09:13:59;14.50;98.40
39957;DHT22;48483;44.640;7.494;2023-04-09T09:16:26;14.70;98.10
39957;DHT22;48483;44.640;7.494;2023-04-09T09:18:52;14.60;97.50
39957;DHT22;48483;44.640;7.494;2023-04-09T09:21:21;14.60;97.50
39957;DHT22;48483;44.640;7.494;2023-04-09T09:23:47;14.60;97.80
39957;DHT22;48483;44.640;7.494;2023-04-09T09:26:16;14.60;98.20
39957;DHT22;48483;44.640;7.494;2023-04-09T09:28:45;14.80;98.40
39957;DHT22;48483;44.640;7.494;2023-04-09T09:31:14;15.00;98.20
39957;DHT22;48483;44.640;7.494;2023-04-09T09:33:41;15.10;98.10
39957;DHT22;48483;44.640;7.494;2023-04-09T09:36:08;15.10;98.10
39957;DHT22;48483;44.640;7.494;2023-04-09T09:38:50;15.10;97.00
39957;DHT22;48483;44.640;7.494;2023-04-09T09:41:18;15.10;97.00
39957;DHT22;48483;44.640;7.494;2023-04-09T09:43:46;15.00;96.80
39957;DHT22;48483;44.640;7.494;2023-04-09T09:46:12;14.80;96.80
39957;DHT22;48483;44.640;7.494;2023-04-09T09:48:41;14.70;96.70
39957;DHT22;48483;44.640;7.494;2023-04-09T09:51:10;14.80;96.60
39957;DHT22;48483;44.640;7.494;2023-04-09T09:53:37;14.80;96.80
39957;DHT22;48483;44.640;7.494;2023-04-09T09:56:05;14.90;96.90
39957;DHT22;48483;44.640;7.494;2023-04-09T09:58:36;14.80;97.30
39957;DHT22;48483;44.640;7.494;2023-04-09T10:01:08;14.90;97.50
39957;DHT22;48483;44.640;7.494;2023-04-09T10:03:38;15.10;96.90
39957;DHT22;48483;44.640;7.494;2023-04-09T10:06:05;15.30;96.60
39957;DHT22;48483;44.640;7.494;2023-04-09T10:08:32;15.20;95.70
39957;DHT22;48483;44.640;7.494;2023-04-09T10:10:59;15.20;95.60
39957;DHT22;48483;44.640;7.494;2023-04-09T10:13:29;15.30;95.20
39957;DHT22;48483;44.640;7.494;2023-04-09T10:15:59;15.30;94.80
39957;DHT22;48483;44.640;7.494;2023-04-09T10:18:27;15.40;93.70
39957;DHT22;48483;44.640;7.494;2023-04-09T10:20:57;15.50;92.80
39957;DHT22;48483;44.640;7.494;2023-04-09T10:23:31;15.50;92.60
39957;DHT22;48483;44.640;7.494;2023-04-09T10:25:59;15.40;93.10
39957;DHT22;48483;44.640;7.494;2023-04-09T10:28:25;15.40;93.30
39957;DHT22;48483;44.640;7.494;2023-04-09T10:30:52;15.40;93.50
39957;DHT22;48483;44.640;7.494;2023-04-09T10:33:22;15.40;93.20
39957;DHT22;48483;44.640;7.494;2023-04-09T10:35:55;15.40;92.90
39957;DHT22;48483;44.640;7.494;2023-04-09T10:38:35;15.40;93.00
39957;DHT22;48483;44.640;7.494;2023-04-09T10:41:20;15.40;92.90
39957;DHT22;48483;44.640;7.494;2023-04-09T10:43:48;15.50;92.80
39957;DHT22;48483;44.640;7.494;2023-04-09T10:46:26;15.50;92.80
39957;DHT22;48483;44.640;7.494;2023-04-09T10:49:09;15.60;92.40
39957;DHT22;48483;44.640;7.494;2023-04-09T10:51:38;15.60;92.30
39957;DHT22;48483;44.640;7.494;2023-04-09T10:54:38;15.70;92.40
39957;DHT22;48483;44.640;7.494;2023-04-09T10:57:26;15.70;91.40
39957;DHT22;48483;44.640;7.494;2023-04-09T10:59:53;15.60;91.50
39957;DHT22;48483;44.640;7.494;2023-04-09T11:05:31;16.00;92.00
39957;DHT22;48483;44.640;7.494;2023-04-09T11:08:04;16.00;91.90
39957;DHT22;48483;44.640;7.494;2023-04-09T11:10:31;16.10;91.50
39957;DHT22;48483;44.640;7.494;2023-04-09T11:12:58;16.00;91.20
39957;DHT22;48483;44.640;7.494;2023-04-09T11:15:25;16.00;91.20
39957;DHT22;48483;44.640;7.494;2023-04-09T11:17:52;16.10;91.30
39957;DHT22;48483;44.640;7.494;2023-04-09T11:20:21;16.10;90.10
39957;DHT22;48483;44.640;7.494;2023-04-09T11:22:48;16.10;90.20
39957;DHT22;48483;44.640;7.494;2023-04-09T11:25:20;16.30;89.40
39957;DHT22;48483;44.640;7.494;2023-04-09T11:27:47;16.30;88.10
39957;DHT22;48483;44.640;7.494;2023-04-09T11:30:14;16.20;87.10
39957;DHT22;48483;44.640;7.494;2023-04-09T11:32:41;16.00;87.30
39957;DHT22;48483;44.640;7.494;2023-04-09T11:35:12;15.90;87.90
39957;DHT22;48483;44.640;7.494;2023-04-09T11:37:39;16.00;87.40
39957;DHT22;48483;44.640;7.494;2023-04-09T11:40:08;16.10;86.20
39957;DHT22;48483;44.640;7.494;2023-04-09T11:42:40;16.10;86.00
39957;DHT22;48483;44.640;7.494;2023-04-09T11:47:35;16.30;85.10
39957;DHT22;48483;44.640;7.494;2023-04-09T11:50:02;16.40;85.70
39957;DHT22;48483;44.640;7.494;2023-04-09T11:52:28;16.50;85.60
39957;DHT22;48483;44.640;7.494;2023-04-09T11:54:58;16.50;85.20
39957;DHT22;48483;44.640;7.494;2023-04-09T11:57:35;16.50;84.90
39957;DHT22;48483;44.640;7.494;2023-04-09T12:00:07;16.50;85.00
39957;DHT22;48483;44.640;7.494;2023-04-09T12:02:40;16.50;84.30
39957;DHT22;48483;44.640;7.494;2023-04-09T12:05:09;16.50;84.10
39957;DHT22;48483;44.640;7.494;2023-04-09T12:07:36;16.50;83.60
39957;DHT22;48483;44.640;7.494;2023-04-09T12:10:04;16.50;83.60
39957;DHT22;48483;44.640;7.494;2023-04-09T12:12:39;16.30;82.20
39957;DHT22;48483;44.640;7.494;2023-04-09T12:15:20;16.30;82.20
39957;DHT22;48483;44.640;7.494;2023-04-09T12:17:52;16.30;82.20
39957;DHT22;48483;44.640;7.494;2023-04-09T12:20:29;16.40;81.80
39957;DHT22;48483;44.640;7.494;2023-04-09T12:22:57;16.60;82.00
39957;DHT22;48483;44.640;7.494;2023-04-09T12:25:25;16.50;80.80
39957;DHT22;48483;44.640;7.494;2023-04-09T12:27:52;16.60;80.60
39957;DHT22;48483;44.640;7.494;2023-04-09T12:30:21;16.60;81.50
39957;DHT22;48483;44.640;7.494;2023-04-09T12:32:47;16.80;82.00
39957;DHT22;48483;44.640;7.494;2023-04-09T12:35:14;16.80;81.50
39957;DHT22;48483;44.640;7.494;2023-04-09T12:37:41;16.70;81.40
39957;DHT22;48483;44.640;7.494;2023-04-09T12:40:08;16.70;81.30
39957;DHT22;48483;44.640;7.494;2023-04-09T12:42:35;16.80;81.90
39957;DHT22;48483;44.640;7.494;2023-04-09T12:45:01;16.90;82.30
39957;DHT22;48483;44.640;7.494;2023-04-09T12:47:29;16.90;82.20
39957;DHT22;48483;44.640;7.494;2023-04-09T12:49:56;16.90;81.90
39957;DHT22;48483;44.640;7.494;2023-04-09T12:52:22;16.80;81.70
39957;DHT22;48483;44.640;7.494;2023-04-09T12:54:50;16.80;81.60
39957;DHT22;48483;44.640;7.494;2023-04-09T12:57:17;16.70;80.80
39957;DHT22;48483;44.640;7.494;2023-04-09T12:59:44;16.80;80.90
39957;DHT22;48483;44.640;7.494;2023-04-09T13:02:10;16.80;80.40
39957;DHT22;48483;44.640;7.494;2023-04-09T13:04:38;16.90;80.70
39957;DHT22;48483;44.640;7.494;2023-04-09T13:07:05;16.90;80.90
39957;DHT22;48483;44.640;7.494;2023-04-09T13:09:32;16.90;80.90
39957;DHT22;48483;44.640;7.494;2023-04-09T13:11:58;16.90;81.50
39957;DHT22;48483;44.640;7.494;2023-04-09T13:14:25;16.80;81.40
39957;DHT22;48483;44.640;7.494;2023-04-09T13:16:51;16.80;81.00
39957;DHT22;48483;44.640;7.494;2023-04-09T13:19:19;16.70;80.90
39957;DHT22;48483;44.640;7.494;2023-04-09T13:21:47;16.80;80.80
39957;DHT22;48483;44.640;7.494;2023-04-09T13:24:13;16.80;80.40
39957;DHT22;48483;44.640;7.494;2023-04-09T13:26:40;17.00;80.60
39957;DHT22;48483;44.640;7.494;2023-04-09T13:29:07;17.10;80.20
39957;DHT22;48483;44.640;7.494;2023-04-09T13:31:34;17.10;80.10
39957;DHT22;48483;44.640;7.494;2023-04-09T13:34:01;17.20;79.30
39957;DHT22;48483;44.640;7.494;2023-04-09T13:36:28;17.10;79.00
39957;DHT22;48483;44.640;7.494;2023-04-09T13:38:56;17.10;79.20
39957;DHT22;48483;44.640;7.494;2023-04-09T13:41:30;17.20;79.40
39957;DHT22;48483;44.640;7.494;2023-04-09T13:43:57;17.10;79.20
39957;DHT22;48483;44.640;7.494;2023-04-09T13:46:24;17.20;79.30
39957;DHT22;48483;44.640;7.494;2023-04-09T13:48:51;17.20;78.20
39957;DHT22;48483;44.640;7.494;2023-04-09T13:51:17;17.20;77.90
39957;DHT22;48483;44.640;7.494;2023-04-09T13:53:44;17.20;77.60
39957;DHT22;48483;44.640;7.494;2023-04-09T13:56:12;17.00;77.20
39957;DHT22;48483;44.640;7.494;2023-04-09T13:58:39;17.00;77.20
39957;DHT22;48483;44.640;7.494;2023-04-09T14:01:05;17.00;77.30
39957;DHT22;48483;44.640;7.494;2023-04-09T14:03:32;17.10;77.20
39957;DHT22;48483;44.640;7.494;2023-04-09T14:05:59;17.00;77.20
39957;DHT22;48483;44.640;7.494;2023-04-09T14:08:28;17.10;77.10
39957;DHT22;48483;44.640;7.494;2023-04-09T14:10:54;17.10;77.30
39957;DHT22;48483;44.640;7.494;2023-04-09T14:13:23;17.10;77.40
39957;DHT22;48483;44.640;7.494;2023-04-09T14:15:50;17.10;78.80
39957;DHT22;48483;44.640;7.494;2023-04-09T14:18:16;17.20;78.30
39957;DHT22;48483;44.640;7.494;2023-04-09T14:20:43;17.10;77.70
39957;DHT22;48483;44.640;7.494;2023-04-09T14:23:09;17.10;77.70
39957;DHT22;48483;44.640;7.494;2023-04-09T14:25:36;16.90;77.70
39957;DHT22;48483;44.640;7.494;2023-04-09T14:28:03;17.00;77.80
39957;DHT22;48483;44.640;7.494;2023-04-09T14:30:31;17.00;78.00
39957;DHT22;48483;44.640;7.494;2023-04-09T14:32:58;17.10;78.10
39957;DHT22;48483;44.640;7.494;2023-04-09T14:35:25;17.10;77.80
39957;DHT22;48483;44.640;7.494;2023-04-09T14:37:51;17.20;77.70
39957;DHT22;48483;44.640;7.494;2023-04-09T14:40:18;17.20;77.60
39957;DHT22;48483;44.640;7.494;2023-04-09T14:42:45;17.20;78.00
39957;DHT22;48483;44.640;7.494;2023-04-09T14:45:11;17.20;76.70
39957;DHT22;48483;44.640;7.494;2023-04-09T14:47:39;17.20;77.40
39957;DHT22;48483;44.640;7.494;2023-04-09T14:50:06;17.20;76.80
39957;DHT22;48483;44.640;7.494;2023-04-09T14:52:33;17.20;77.00
39957;DHT22;48483;44.640;7.494;2023-04-09T14:54:59;17.20;76.70
39957;DHT22;48483;44.640;7.494;2023-04-09T14:57:26;17.20;77.10
39957;DHT22;48483;44.640;7.494;2023-04-09T14:59:52;17.30;77.00
39957;DHT22;48483;44.640;7.494;2023-04-09T15:02:19;17.20;75.60
39957;DHT22;48483;44.640;7.494;2023-04-09T15:04:47;17.20;75.70
39957;DHT22;48483;44.640;7.494;2023-04-09T15:07:13;17.20;76.00
39957;DHT22;48483;44.640;7.494;2023-04-09T15:09:40;17.30;75.50
39957;DHT22;48483;44.640;7.494;2023-04-09T15:12:06;17.40;74.90
39957;DHT22;48483;44.640;7.494;2023-04-09T15:14:34;17.40;74.50
39957;DHT22;48483;44.640;7.494;2023-04-09T15:17:01;17.40;75.00
39957;DHT22;48483;44.640;7.494;2023-04-09T15:19:28;17.30;75.50
39957;DHT22;48483;44.640;7.494;2023-04-09T15:21:58;17.30;75.40
39957;DHT22;48483;44.640;7.494;2023-04-09T15:24:25;17.30;75.70
39957;DHT22;48483;44.640;7.494;2023-04-09T15:26:51;17.30;76.00
39957;DHT22;48483;44.640;7.494;2023-04-09T15:29:18;17.40;76.20
39957;DHT22;48483;44.640;7.494;2023-04-09T15:31:44;17.30;75.10
39957;DHT22;48483;44.640;7.494;2023-04-09T15:34:11;17.20;75.00
39957;DHT22;48483;44.640;7.494;2023-04-09T15:36:37;17.20;75.10
39957;DHT22;48483;44.640;7.494;2023-04-09T15:39:05;17.30;74.90
39957;DHT22;48483;44.640;7.494;2023-04-09T15:41:32;17.30;74.60
39957;DHT22;48483;44.640;7.494;2023-04-09T15:43:59;17.30;73.90
39957;DHT22;48483;44.640;7.494;2023-04-09T15:46:25;17.30;73.70